sensor_id;sensor_type;location;lat;lon;timestamp;P1;durP1;ratioP1;P2;durP2;ratioP2
3819;SDS011;1925;51.356;9.530;2023-04-29T00:01:57;12.27;;;11.00;;
3819;SDS011;1925;51.356;9.530;2023-04-29T00:04:24;11.53;;;10.30;;
3819;SDS011;1925;51.356;9.530;2023-04-29T00:06:50;11.97;;;10.67;;
3819;SDS011;1925;51.356;9.530;2023-04-29T00:09:16;12.33;;;11.00;;
3819;SDS011;1925;51.356;9.530;2023-04-29T00:11:42;11.90;;;10.70;;
3819;SDS011;1925;51.356;9.530;2023-04-29T00:14:08;12.20;;;10.90;;
3819;SDS011;1925;51.356;9.530;2023-04-29T00:16:34;11.53;;;10.17;;
3819;SDS011;1925;51.356;9.530;2023-04-29T00:19:00;14.17;;;12.30;;
3819;SDS011;1925;51.356;9.530;2023-04-29T00:21:26;12.80;;;11.40;;
3819;SDS011;1925;51.356;9.530;2023-04-29T00:23:52;12.77;;;11.47;;
3819;SDS011;1925;51.356;9.530;2023-04-29T00:26:18;15.00;;;10.13;;
3819;SDS011;1925;51.356;9.530;2023-04-29T00:28:44;12.30;;;11.00;;
3819;SDS011;1925;51.356;9.530;2023-04-29T00:31:10;11.87;;;10.40;;
3819;SDS011;1925;51.356;9.530;2023-04-29T00:33:37;12.80;;;10.90;;
3819;SDS011;1925;51.356;9.530;2023-04-29T00:36:04;12.27;;;11.07;;
3819;SDS011;1925;51.356;9.530;2023-04-29T00:38:30;10.53;;;9.43;;
3819;SDS011;1925;51.356;9.530;2023-04-29T00:40:56;12.47;;;11.10;;
3819;SDS011;1925;51.356;9.530;2023-04-29T00:43:22;12.30;;;10.50;;
3819;SDS011;1925;51.356;9.530;2023-04-29T00:45:48;13.80;;;11.97;;
3819;SDS011;1925;51.356;9.530;2023-04-29T00:48:15;12.65;;;11.35;;
3819;SDS011;1925;51.356;9.530;2023-04-29T00:50:41;12.67;;;10.90;;
3819;SDS011;1925;51.356;9.530;2023-04-29T00:53:07;18.93;;;13.20;;
3819;SDS011;1925;51.356;9.530;2023-04-29T00:55:33;13.02;;;11.20;;
3819;SDS011;1925;51.356;9.530;2023-04-29T00:58:00;11.50;;;10.30;;
3819;SDS011;1925;51.356;9.530;2023-04-29T01:00:28;11.30;;;9.77;;
3819;SDS011;1925;51.356;9.530;2023-04-29T01:02:54;12.07;;;10.68;;
3819;SDS011;1925;51.356;9.530;2023-04-29T01:05:21;10.45;;;9.40;;
3819;SDS011;1925;51.356;9.530;2023-04-29T01:07:53;11.23;;;9.77;;
3819;SDS011;1925;51.356;9.530;2023-04-29T01:10:25;10.45;;;9.35;;
3819;SDS011;1925;51.356;9.530;2023-04-29T01:13:06;10.83;;;9.33;;
3819;SDS011;1925;51.356;9.530;2023-04-29T01:18:04;10.32;;;9.25;;
3819;SDS011;1925;51.356;9.530;2023-04-29T01:20:30;9.98;;;8.32;;
3819;SDS011;1925;51.356;9.530;2023-04-29T01:22:57;8.63;;;7.72;;
3819;SDS011;1925;51.356;9.530;2023-04-29T01:25:23;11.40;;;9.70;;
3819;SDS011;1925;51.356;9.530;2023-04-29T01:28:04;9.63;;;8.63;;
3819;SDS011;1925;51.356;9.530;2023-04-29T01:30:45;11.30;;;8.57;;
3819;SDS011;1925;51.356;9.530;2023-04-29T01:43:31;7.35;;;6.10;;
3819;SDS011;1925;51.356;9.530;2023-04-29T01:45:58;6.90;;;6.25;;
3819;SDS011;1925;51.356;9.530;2023-04-29T01:48:25;6.95;;;6.25;;
3819;SDS011;1925;51.356;9.530;2023-04-29T01:50:51;8.25;;;6.72;;
3819;SDS011;1925;51.356;9.530;2023-04-29T01:53:17;9.30;;;6.60;;
3819;SDS011;1925;51.356;9.530;2023-04-29T01:55:43;8.63;;;6.70;;
3819;SDS011;1925;51.356;9.530;2023-04-29T01:58:09;6.97;;;6.30;;
3819;SDS011;1925;51.356;9.530;2023-04-29T02:00:35;7.53;;;6.50;;
3819;SDS011;1925;51.356;9.530;2023-04-29T02:03:02;8.15;;;7.25;;
3819;SDS011;1925;51.356;9.530;2023-04-29T02:05:29;9.60;;;8.17;;
3819;SDS011;1925;51.356;9.530;2023-04-29T02:07:57;15.18;;;9.05;;
3819;SDS011;1925;51.356;9.530;2023-04-29T02:10:23;9.60;;;8.20;;
3819;SDS011;1925;51.356;9.530;2023-04-29T02:12:49;8.97;;;8.03;;
3819;SDS011;1925;51.356;9.530;2023-04-29T02:15:15;11.37;;;10.17;;
3819;SDS011;1925;51.356;9.530;2023-04-29T02:17:41;12.32;;;10.23;;
3819;SDS011;1925;51.356;9.530;2023-04-29T02:20:07;15.27;;;11.60;;
3819;SDS011;1925;51.356;9.530;2023-04-29T02:22:34;12.50;;;10.48;;
3819;SDS011;1925;51.356;9.530;2023-04-29T02:25:00;13.60;;;11.73;;
3819;SDS011;1925;51.356;9.530;2023-04-29T02:27:26;12.93;;;10.97;;
3819;SDS011;1925;51.356;9.530;2023-04-29T02:29:52;11.90;;;10.60;;
3819;SDS011;1925;51.356;9.530;2023-04-29T02:32:18;12.30;;;11.10;;
3819;SDS011;1925;51.356;9.530;2023-04-29T02:34:44;14.48;;;12.27;;
3819;SDS011;1925;51.356;9.530;2023-04-29T02:37:10;13.48;;;12.02;;
3819;SDS011;1925;51.356;9.530;2023-04-29T02:39:37;13.48;;;10.68;;
3819;SDS011;1925;51.356;9.530;2023-04-29T02:42:03;13.03;;;10.43;;
3819;SDS011;1925;51.356;9.530;2023-04-29T02:44:28;12.47;;;10.07;;
3819;SDS011;1925;51.356;9.530;2023-04-29T02:46:55;12.15;;;10.85;;
3819;SDS011;1925;51.356;9.530;2023-04-29T02:49:22;14.27;;;10.40;;
3819;SDS011;1925;51.356;9.530;2023-04-29T02:51:48;13.77;;;11.10;;
3819;SDS011;1925;51.356;9.530;2023-04-29T02:54:14;13.47;;;11.37;;
3819;SDS011;1925;51.356;9.530;2023-04-29T02:56:41;12.50;;;11.15;;
3819;SDS011;1925;51.356;9.530;2023-04-29T02:59:08;13.02;;;10.98;;
3819;SDS011;1925;51.356;9.530;2023-04-29T03:01:34;12.68;;;11.10;;
3819;SDS011;1925;51.356;9.530;2023-04-29T03:04:02;14.65;;;12.05;;
3819;SDS011;1925;51.356;9.530;2023-04-29T03:06:28;18.60;;;11.80;;
3819;SDS011;1925;51.356;9.530;2023-04-29T03:08:54;13.93;;;11.38;;
3819;SDS011;1925;51.356;9.530;2023-04-29T03:11:21;17.48;;;12.25;;
3819;SDS011;1925;51.356;9.530;2023-04-29T03:13:48;13.88;;;11.38;;
3819;SDS011;1925;51.356;9.530;2023-04-29T03:16:14;15.15;;;11.85;;
3819;SDS011;1925;51.356;9.530;2023-04-29T03:18:43;16.33;;;11.55;;
3819;SDS011;1925;51.356;9.530;2023-04-29T03:21:09;13.93;;;11.57;;
3819;SDS011;1925;51.356;9.530;2023-04-29T03:23:35;15.30;;;12.40;;
3819;SDS011;1925;51.356;9.530;2023-04-29T03:26:03;17.00;;;12.10;;
3819;SDS011;1925;51.356;9.530;2023-04-29T03:28:29;16.10;;;13.07;;
3819;SDS011;1925;51.356;9.530;2023-04-29T03:30:55;14.80;;;11.47;;
3819;SDS011;1925;51.356;9.530;2023-04-29T03:33:22;15.95;;;11.25;;
3819;SDS011;1925;51.356;9.530;2023-04-29T03:35:48;19.50;;;14.10;;
3819;SDS011;1925;51.356;9.530;2023-04-29T03:38:14;14.90;;;11.40;;
3819;SDS011;1925;51.356;9.530;2023-04-29T03:40:40;13.47;;;10.83;;
3819;SDS011;1925;51.356;9.530;2023-04-29T03:43:06;13.50;;;11.52;;
3819;SDS011;1925;51.356;9.530;2023-04-29T03:45:33;14.70;;;11.30;;
3819;SDS011;1925;51.356;9.530;2023-04-29T03:47:59;11.90;;;9.18;;
3819;SDS011;1925;51.356;9.530;2023-04-29T03:50:26;14.43;;;9.68;;
3819;SDS011;1925;51.356;9.530;2023-04-29T03:52:52;12.37;;;9.47;;
3819;SDS011;1925;51.356;9.530;2023-04-29T03:55:18;13.77;;;10.33;;
3819;SDS011;1925;51.356;9.530;2023-04-29T03:57:44;13.07;;;10.27;;
3819;SDS011;1925;51.356;9.530;2023-04-29T04:00:10;13.83;;;9.93;;
3819;SDS011;1925;51.356;9.530;2023-04-29T04:02:36;14.05;;;10.68;;
3819;SDS011;1925;51.356;9.530;2023-04-29T04:05:02;13.40;;;10.17;;
3819;SDS011;1925;51.356;9.530;2023-04-29T04:07:28;15.48;;;9.63;;
3819;SDS011;1925;51.356;9.530;2023-04-29T04:09:54;11.80;;;9.97;;
3819;SDS011;1925;51.356;9.530;2023-04-29T04:12:20;15.17;;;12.40;;
3819;SDS011;1925;51.356;9.530;2023-04-29T04:14:46;15.27;;;11.77;;
3819;SDS011;1925;51.356;9.530;2023-04-29T04:17:12;14.57;;;11.10;;
3819;SDS011;1925;51.356;9.530;2023-04-29T04:19:38;15.67;;;10.57;;
3819;SDS011;1925;51.356;9.530;2023-04-29T04:22:04;15.70;;;11.37;;
3819;SDS011;1925;51.356;9.530;2023-04-29T04:24:31;15.07;;;11.27;;
3819;SDS011;1925;51.356;9.530;2023-04-29T04:26:57;15.60;;;12.17;;
3819;SDS011;1925;51.356;9.530;2023-04-29T04:29:23;16.97;;;12.17;;
3819;SDS011;1925;51.356;9.530;2023-04-29T04:31:49;17.10;;;11.97;;
3819;SDS011;1925;51.356;9.530;2023-04-29T04:34:15;14.70;;;11.85;;
3819;SDS011;1925;51.356;9.530;2023-04-29T04:36:41;14.60;;;10.90;;
3819;SDS011;1925;51.356;9.530;2023-04-29T04:39:07;14.73;;;11.17;;
3819;SDS011;1925;51.356;9.530;2023-04-29T04:41:33;14.23;;;10.38;;
3819;SDS011;1925;51.356;9.530;2023-04-29T04:43:59;13.85;;;11.13;;
3819;SDS011;1925;51.356;9.530;2023-04-29T04:46:26;14.50;;;10.57;;
3819;SDS011;1925;51.356;9.530;2023-04-29T04:48:52;14.80;;;10.23;;
3819;SDS011;1925;51.356;9.530;2023-04-29T04:51:17;12.43;;;8.80;;
3819;SDS011;1925;51.356;9.530;2023-04-29T04:53:44;12.30;;;8.52;;
3819;SDS011;1925;51.356;9.530;2023-04-29T04:56:10;19.80;;;8.30;;
3819;SDS011;1925;51.356;9.530;2023-04-29T04:58:36;16.40;;;9.47;;
3819;SDS011;1925;51.356;9.530;2023-04-29T05:01:02;11.00;;;8.93;;
3819;SDS011;1925;51.356;9.530;2023-04-29T05:03:28;10.63;;;8.17;;
3819;SDS011;1925;51.356;9.530;2023-04-29T05:05:57;11.37;;;8.90;;
3819;SDS011;1925;51.356;9.530;2023-04-29T05:08:23;12.82;;;9.52;;
3819;SDS011;1925;51.356;9.530;2023-04-29T05:10:49;12.80;;;9.80;;
3819;SDS011;1925;51.356;9.530;2023-04-29T05:13:16;12.25;;;9.52;;
3819;SDS011;1925;51.356;9.530;2023-04-29T05:15:42;14.32;;;8.77;;
3819;SDS011;1925;51.356;9.530;2023-04-29T05:18:08;14.13;;;10.48;;
3819;SDS011;1925;51.356;9.530;2023-04-29T05:20:34;10.68;;;8.48;;
3819;SDS011;1925;51.356;9.530;2023-04-29T05:23:01;14.45;;;10.23;;
3819;SDS011;1925;51.356;9.530;2023-04-29T05:25:27;15.98;;;10.52;;
3819;SDS011;1925;51.356;9.530;2023-04-29T05:27:53;15.50;;;10.97;;
3819;SDS011;1925;51.356;9.530;2023-04-29T05:30:19;17.87;;;11.43;;
3819;SDS011;1925;51.356;9.530;2023-04-29T05:32:45;18.83;;;11.93;;
3819;SDS011;1925;51.356;9.530;2023-04-29T05:35:11;15.80;;;10.52;;
3819;SDS011;1925;51.356;9.530;2023-04-29T05:37:37;19.80;;;12.53;;
3819;SDS011;1925;51.356;9.530;2023-04-29T05:40:03;18.43;;;12.27;;
3819;SDS011;1925;51.356;9.530;2023-04-29T05:42:29;19.25;;;12.68;;
3819;SDS011;1925;51.356;9.530;2023-04-29T05:44:55;17.55;;;12.85;;
3819;SDS011;1925;51.356;9.530;2023-04-29T05:47:21;20.87;;;13.87;;
3819;SDS011;1925;51.356;9.530;2023-04-29T05:49:47;21.10;;;14.10;;
3819;SDS011;1925;51.356;9.530;2023-04-29T05:52:13;21.17;;;13.27;;
3819;SDS011;1925;51.356;9.530;2023-04-29T05:54:39;20.70;;;13.30;;
3819;SDS011;1925;51.356;9.530;2023-04-29T05:57:06;19.92;;;12.80;;
3819;SDS011;1925;51.356;9.530;2023-04-29T05:59:32;17.65;;;12.88;;
3819;SDS011;1925;51.356;9.530;2023-04-29T06:01:58;18.70;;;12.68;;
3819;SDS011;1925;51.356;9.530;2023-04-29T06:04:25;18.92;;;12.63;;
3819;SDS011;1925;51.356;9.530;2023-04-29T06:06:51;18.05;;;12.45;;
3819;SDS011;1925;51.356;9.530;2023-04-29T06:09:21;17.67;;;12.48;;
3819;SDS011;1925;51.356;9.530;2023-04-29T06:11:49;14.60;;;10.90;;
3819;SDS011;1925;51.356;9.530;2023-04-29T06:14:15;17.40;;;11.60;;
3819;SDS011;1925;51.356;9.530;2023-04-29T06:16:41;16.67;;;11.37;;
3819;SDS011;1925;51.356;9.530;2023-04-29T06:19:07;15.20;;;11.30;;
3819;SDS011;1925;51.356;9.530;2023-04-29T06:21:33;15.33;;;10.13;;
3819;SDS011;1925;51.356;9.530;2023-04-29T06:23:59;17.77;;;11.37;;
3819;SDS011;1925;51.356;9.530;2023-04-29T06:26:25;14.37;;;9.83;;
3819;SDS011;1925;51.356;9.530;2023-04-29T06:28:51;15.73;;;10.33;;
3819;SDS011;1925;51.356;9.530;2023-04-29T06:31:18;15.68;;;11.60;;
3819;SDS011;1925;51.356;9.530;2023-04-29T06:33:44;14.27;;;9.90;;
3819;SDS011;1925;51.356;9.530;2023-04-29T06:36:10;18.05;;;11.88;;
3819;SDS011;1925;51.356;9.530;2023-04-29T06:38:36;13.80;;;10.27;;
3819;SDS011;1925;51.356;9.530;2023-04-29T06:41:02;14.90;;;11.07;;
3819;SDS011;1925;51.356;9.530;2023-04-29T06:43:28;15.32;;;10.98;;
3819;SDS011;1925;51.356;9.530;2023-04-29T06:45:54;14.73;;;10.65;;
3819;SDS011;1925;51.356;9.530;2023-04-29T06:48:21;15.85;;;10.82;;
3819;SDS011;1925;51.356;9.530;2023-04-29T06:50:48;12.95;;;10.10;;
3819;SDS011;1925;51.356;9.530;2023-04-29T06:53:13;14.52;;;10.20;;
3819;SDS011;1925;51.356;9.530;2023-04-29T06:55:39;14.27;;;10.20;;
3819;SDS011;1925;51.356;9.530;2023-04-29T06:58:06;12.82;;;9.80;;
3819;SDS011;1925;51.356;9.530;2023-04-29T07:00:32;12.70;;;10.03;;
3819;SDS011;1925;51.356;9.530;2023-04-29T07:02:57;16.07;;;10.77;;
3819;SDS011;1925;51.356;9.530;2023-04-29T07:05:24;12.90;;;9.48;;
3819;SDS011;1925;51.356;9.530;2023-04-29T07:07:50;13.30;;;8.67;;
3819;SDS011;1925;51.356;9.530;2023-04-29T07:10:16;11.63;;;8.53;;
3819;SDS011;1925;51.356;9.530;2023-04-29T07:12:42;13.20;;;9.67;;
3819;SDS011;1925;51.356;9.530;2023-04-29T07:15:08;11.20;;;8.30;;
3819;SDS011;1925;51.356;9.530;2023-04-29T07:17:34;14.52;;;9.73;;
3819;SDS011;1925;51.356;9.530;2023-04-29T07:20:00;12.25;;;9.23;;
3819;SDS011;1925;51.356;9.530;2023-04-29T07:22:26;10.80;;;9.13;;
3819;SDS011;1925;51.356;9.530;2023-04-29T07:24:52;11.20;;;8.98;;
3819;SDS011;1925;51.356;9.530;2023-04-29T07:27:19;10.77;;;8.60;;
3819;SDS011;1925;51.356;9.530;2023-04-29T07:29:45;11.50;;;7.70;;
3819;SDS011;1925;51.356;9.530;2023-04-29T07:32:11;10.48;;;8.57;;
3819;SDS011;1925;51.356;9.530;2023-04-29T07:34:37;11.77;;;8.13;;
3819;SDS011;1925;51.356;9.530;2023-04-29T07:37:03;11.05;;;7.95;;
3819;SDS011;1925;51.356;9.530;2023-04-29T07:39:29;8.73;;;6.90;;
3819;SDS011;1925;51.356;9.530;2023-04-29T07:41:55;8.90;;;7.35;;
3819;SDS011;1925;51.356;9.530;2023-04-29T07:44:21;9.63;;;7.13;;
3819;SDS011;1925;51.356;9.530;2023-04-29T07:46:47;8.53;;;7.10;;
3819;SDS011;1925;51.356;9.530;2023-04-29T07:49:13;7.10;;;6.37;;
3819;SDS011;1925;51.356;9.530;2023-04-29T07:51:40;7.65;;;6.43;;
3819;SDS011;1925;51.356;9.530;2023-04-29T07:54:06;7.15;;;5.78;;
3819;SDS011;1925;51.356;9.530;2023-04-29T07:56:32;9.40;;;7.15;;
3819;SDS011;1925;51.356;9.530;2023-04-29T07:58:58;9.30;;;6.63;;
3819;SDS011;1925;51.356;9.530;2023-04-29T08:01:25;7.63;;;5.80;;
3819;SDS011;1925;51.356;9.530;2023-04-29T08:03:52;8.13;;;6.90;;
3819;SDS011;1925;51.356;9.530;2023-04-29T08:06:18;7.67;;;6.60;;
3819;SDS011;1925;51.356;9.530;2023-04-29T08:08:46;7.47;;;6.38;;
3819;SDS011;1925;51.356;9.530;2023-04-29T08:11:15;7.50;;;6.30;;
3819;SDS011;1925;51.356;9.530;2023-04-29T08:13:41;9.50;;;7.93;;
3819;SDS011;1925;51.356;9.530;2023-04-29T08:16:07;8.07;;;6.83;;
3819;SDS011;1925;51.356;9.530;2023-04-29T08:18:33;9.17;;;7.00;;
3819;SDS011;1925;51.356;9.530;2023-04-29T08:21:00;8.38;;;7.10;;
3819;SDS011;1925;51.356;9.530;2023-04-29T08:23:26;8.50;;;7.60;;
3819;SDS011;1925;51.356;9.530;2023-04-29T08:25:52;9.47;;;7.90;;
3819;SDS011;1925;51.356;9.530;2023-04-29T08:28:19;8.25;;;7.05;;
3819;SDS011;1925;51.356;9.530;2023-04-29T08:30:45;8.80;;;7.80;;
3819;SDS011;1925;51.356;9.530;2023-04-29T08:33:11;9.73;;;7.50;;
3819;SDS011;1925;51.356;9.530;2023-04-29T08:35:38;10.30;;;8.02;;
3819;SDS011;1925;51.356;9.530;2023-04-29T08:38:04;9.50;;;7.50;;
3819;SDS011;1925;51.356;9.530;2023-04-29T08:40:34;10.90;;;7.90;;
3819;SDS011;1925;51.356;9.530;2023-04-29T08:43:00;10.40;;;9.00;;
3819;SDS011;1925;51.356;9.530;2023-04-29T08:45:27;11.60;;;9.18;;
3819;SDS011;1925;51.356;9.530;2023-04-29T08:47:54;13.00;;;9.93;;
3819;SDS011;1925;51.356;9.530;2023-04-29T08:50:21;12.00;;;9.63;;
3819;SDS011;1925;51.356;9.530;2023-04-29T08:52:48;10.90;;;9.80;;
3819;SDS011;1925;51.356;9.530;2023-04-29T08:55:15;11.48;;;9.95;;
3819;SDS011;1925;51.356;9.530;2023-04-29T08:57:42;12.10;;;10.27;;
3819;SDS011;1925;51.356;9.530;2023-04-29T09:00:09;15.18;;;11.57;;
3819;SDS011;1925;51.356;9.530;2023-04-29T09:02:40;15.27;;;12.00;;
3819;SDS011;1925;51.356;9.530;2023-04-29T09:05:08;14.98;;;11.90;;
3819;SDS011;1925;51.356;9.530;2023-04-29T09:07:35;20.83;;;13.45;;
3819;SDS011;1925;51.356;9.530;2023-04-29T09:10:01;14.10;;;12.60;;
3819;SDS011;1925;51.356;9.530;2023-04-29T09:12:29;16.45;;;13.30;;
3819;SDS011;1925;51.356;9.530;2023-04-29T09:14:55;15.90;;;11.07;;
3819;SDS011;1925;51.356;9.530;2023-04-29T09:17:40;15.10;;;12.60;;
3819;SDS011;1925;51.356;9.530;2023-04-29T09:22:48;15.52;;;12.82;;
3819;SDS011;1925;51.356;9.530;2023-04-29T09:25:14;17.20;;;13.70;;
3819;SDS011;1925;51.356;9.530;2023-04-29T09:27:40;17.38;;;14.25;;
3819;SDS011;1925;51.356;9.530;2023-04-29T09:30:06;17.88;;;14.73;;
3819;SDS011;1925;51.356;9.530;2023-04-29T09:32:33;19.65;;;13.07;;
3819;SDS011;1925;51.356;9.530;2023-04-29T09:37:44;18.98;;;14.73;;
3819;SDS011;1925;51.356;9.530;2023-04-29T09:42:54;22.65;;;15.43;;
3819;SDS011;1925;51.356;9.530;2023-04-29T09:45:37;19.85;;;15.90;;
3819;SDS011;1925;51.356;9.530;2023-04-29T09:48:06;19.25;;;14.98;;
3819;SDS011;1925;51.356;9.530;2023-04-29T09:50:33;21.80;;;16.35;;
3819;SDS011;1925;51.356;9.530;2023-04-29T09:53:01;18.48;;;15.07;;
3819;SDS011;1925;51.356;9.530;2023-04-29T09:55:28;16.45;;;14.50;;
3819;SDS011;1925;51.356;9.530;2023-04-29T09:57:54;21.27;;;16.38;;
3819;SDS011;1925;51.356;9.530;2023-04-29T10:00:20;19.27;;;15.30;;
3819;SDS011;1925;51.356;9.530;2023-04-29T10:02:47;19.13;;;15.40;;
3819;SDS011;1925;51.356;9.530;2023-04-29T10:05:16;18.50;;;15.15;;
3819;SDS011;1925;51.356;9.530;2023-04-29T10:07:42;22.38;;;15.10;;
3819;SDS011;1925;51.356;9.530;2023-04-29T10:10:11;18.73;;;15.88;;
3819;SDS011;1925;51.356;9.530;2023-04-29T10:12:38;19.45;;;16.30;;
3819;SDS011;1925;51.356;9.530;2023-04-29T10:17:48;18.45;;;14.98;;
3819;SDS011;1925;51.356;9.530;2023-04-29T10:20:18;19.33;;;15.38;;
3819;SDS011;1925;51.356;9.530;2023-04-29T10:25:14;18.77;;;15.05;;
3819;SDS011;1925;51.356;9.530;2023-04-29T10:27:41;20.25;;;15.43;;
3819;SDS011;1925;51.356;9.530;2023-04-29T10:30:11;17.95;;;14.68;;
3819;SDS011;1925;51.356;9.530;2023-04-29T10:32:39;18.48;;;15.23;;
3819;SDS011;1925;51.356;9.530;2023-04-29T10:35:06;24.30;;;16.95;;
3819;SDS011;1925;51.356;9.530;2023-04-29T10:37:34;16.80;;;14.20;;
3819;SDS011;1925;51.356;9.530;2023-04-29T10:40:06;19.60;;;14.60;;
3819;SDS011;1925;51.356;9.530;2023-04-29T10:42:36;17.80;;;14.95;;
3819;SDS011;1925;51.356;9.530;2023-04-29T10:45:17;15.38;;;13.55;;
3819;SDS011;1925;51.356;9.530;2023-04-29T10:48:28;26.15;;;17.05;;
3819;SDS011;1925;51.356;9.530;2023-04-29T10:50:32;17.77;;;15.50;;
3819;SDS011;1925;51.356;9.530;2023-04-29T10:53:01;16.95;;;13.68;;
3819;SDS011;1925;51.356;9.530;2023-04-29T10:55:28;15.05;;;13.48;;
3819;SDS011;1925;51.356;9.530;2023-04-29T10:57:54;19.23;;;14.30;;
3819;SDS011;1925;51.356;9.530;2023-04-29T11:00:31;18.33;;;14.43;;
3819;SDS011;1925;51.356;9.530;2023-04-29T11:02:57;14.60;;;13.10;;
3819;SDS011;1925;51.356;9.530;2023-04-29T11:06:02;21.98;;;13.70;;
3819;SDS011;1925;51.356;9.530;2023-04-29T11:08:20;14.93;;;12.88;;
3819;SDS011;1925;51.356;9.530;2023-04-29T11:10:54;15.60;;;13.95;;
3819;SDS011;1925;51.356;9.530;2023-04-29T11:13:29;16.30;;;14.57;;
3819;SDS011;1925;51.356;9.530;2023-04-29T11:16:04;22.63;;;15.57;;
3819;SDS011;1925;51.356;9.530;2023-04-29T11:18:31;16.63;;;13.40;;
3819;SDS011;1925;51.356;9.530;2023-04-29T11:23:28;16.05;;;14.40;;
3819;SDS011;1925;51.356;9.530;2023-04-29T11:25:55;16.52;;;13.50;;
3819;SDS011;1925;51.356;9.530;2023-04-29T11:28:22;19.50;;;15.43;;
3819;SDS011;1925;51.356;9.530;2023-04-29T11:30:49;15.27;;;13.50;;
3819;SDS011;1925;51.356;9.530;2023-04-29T11:33:15;15.37;;;13.73;;
3819;SDS011;1925;51.356;9.530;2023-04-29T11:35:41;16.03;;;12.63;;
3819;SDS011;1925;51.356;9.530;2023-04-29T11:38:08;20.30;;;13.50;;
3819;SDS011;1925;51.356;9.530;2023-04-29T11:40:34;14.87;;;12.20;;
3819;SDS011;1925;51.356;9.530;2023-04-29T11:43:00;16.70;;;12.97;;
3819;SDS011;1925;51.356;9.530;2023-04-29T11:45:26;13.90;;;12.43;;
3819;SDS011;1925;51.356;9.530;2023-04-29T11:47:52;15.67;;;12.27;;
3819;SDS011;1925;51.356;9.530;2023-04-29T11:50:18;15.60;;;12.80;;
3819;SDS011;1925;51.356;9.530;2023-04-29T11:52:47;15.07;;;11.30;;
3819;SDS011;1925;51.356;9.530;2023-04-29T11:55:13;10.85;;;9.75;;
3819;SDS011;1925;51.356;9.530;2023-04-29T11:57:39;9.35;;;8.45;;
3819;SDS011;1925;51.356;9.530;2023-04-29T12:00:08;10.35;;;9.35;;
3819;SDS011;1925;51.356;9.530;2023-04-29T12:02:37;10.93;;;8.70;;
3819;SDS011;1925;51.356;9.530;2023-04-29T12:05:04;11.00;;;9.20;;
3819;SDS011;1925;51.356;9.530;2023-04-29T12:07:31;12.43;;;9.93;;
3819;SDS011;1925;51.356;9.530;2023-04-29T12:09:57;11.67;;;9.43;;
3819;SDS011;1925;51.356;9.530;2023-04-29T12:12:24;10.80;;;9.70;;
3819;SDS011;1925;51.356;9.530;2023-04-29T12:14:51;12.23;;;9.73;;
3819;SDS011;1925;51.356;9.530;2023-04-29T12:17:18;10.02;;;9.00;;
3819;SDS011;1925;51.356;9.530;2023-04-29T12:19:44;11.18;;;9.50;;
3819;SDS011;1925;51.356;9.530;2023-04-29T12:22:11;12.63;;;11.32;;
3819;SDS011;1925;51.356;9.530;2023-04-29T12:24:39;11.10;;;10.00;;
3819;SDS011;1925;51.356;9.530;2023-04-29T12:27:08;10.45;;;9.18;;
3819;SDS011;1925;51.356;9.530;2023-04-29T12:29:37;12.70;;;9.85;;
3819;SDS011;1925;51.356;9.530;2023-04-29T12:32:07;10.85;;;9.75;;
3819;SDS011;1925;51.356;9.530;2023-04-29T12:34:38;10.55;;;9.45;;
3819;SDS011;1925;51.356;9.530;2023-04-29T12:37:04;10.90;;;9.80;;
3819;SDS011;1925;51.356;9.530;2023-04-29T12:39:30;11.63;;;9.80;;
3819;SDS011;1925;51.356;9.530;2023-04-29T12:41:59;12.40;;;10.70;;
3819;SDS011;1925;51.356;9.530;2023-04-29T12:44:33;10.68;;;9.55;;
3819;SDS011;1925;51.356;9.530;2023-04-29T12:47:05;10.98;;;8.48;;
3819;SDS011;1925;51.356;9.530;2023-04-29T12:49:31;12.45;;;9.50;;
3819;SDS011;1925;51.356;9.530;2023-04-29T12:51:58;13.38;;;9.18;;
3819;SDS011;1925;51.356;9.530;2023-04-29T12:54:24;8.60;;;7.75;;
3819;SDS011;1925;51.356;9.530;2023-04-29T12:56:50;8.70;;;7.90;;
3819;SDS011;1925;51.356;9.530;2023-04-29T12:59:17;9.77;;;8.75;;
3819;SDS011;1925;51.356;9.530;2023-04-29T13:01:43;11.80;;;10.47;;
3819;SDS011;1925;51.356;9.530;2023-04-29T13:04:09;13.30;;;9.47;;
3819;SDS011;1925;51.356;9.530;2023-04-29T13:06:36;8.95;;;8.05;;
3819;SDS011;1925;51.356;9.530;2023-04-29T13:09:08;12.70;;;8.02;;
3819;SDS011;1925;51.356;9.530;2023-04-29T13:11:36;9.07;;;8.13;;
3819;SDS011;1925;51.356;9.530;2023-04-29T13:14:02;10.00;;;8.75;;
3819;SDS011;1925;51.356;9.530;2023-04-29T13:16:30;9.45;;;8.43;;
3819;SDS011;1925;51.356;9.530;2023-04-29T13:18:56;10.50;;;8.23;;
3819;SDS011;1925;51.356;9.530;2023-04-29T13:21:22;8.20;;;7.50;;
3819;SDS011;1925;51.356;9.530;2023-04-29T13:23:48;11.37;;;10.20;;
3819;SDS011;1925;51.356;9.530;2023-04-29T13:26:14;13.45;;;9.70;;
3819;SDS011;1925;51.356;9.530;2023-04-29T13:28:40;11.43;;;8.88;;
3819;SDS011;1925;51.356;9.530;2023-04-29T13:31:07;19.23;;;12.75;;
3819;SDS011;1925;51.356;9.530;2023-04-29T13:33:33;19.13;;;13.20;;
3819;SDS011;1925;51.356;9.530;2023-04-29T13:35:59;11.20;;;10.00;;
3819;SDS011;1925;51.356;9.530;2023-04-29T13:38:25;14.70;;;9.18;;
3819;SDS011;1925;51.356;9.530;2023-04-29T13:40:51;12.57;;;9.33;;
3819;SDS011;1925;51.356;9.530;2023-04-29T13:43:17;10.43;;;8.57;;
3819;SDS011;1925;51.356;9.530;2023-04-29T13:45:43;9.13;;;8.20;;
3819;SDS011;1925;51.356;9.530;2023-04-29T13:48:08;9.00;;;7.93;;
3819;SDS011;1925;51.356;9.530;2023-04-29T13:50:35;9.00;;;8.10;;
3819;SDS011;1925;51.356;9.530;2023-04-29T13:53:01;9.23;;;8.43;;
3819;SDS011;1925;51.356;9.530;2023-04-29T13:55:27;10.50;;;8.20;;
3819;SDS011;1925;51.356;9.530;2023-04-29T13:57:53;9.68;;;8.80;;
3819;SDS011;1925;51.356;9.530;2023-04-29T14:00:19;11.80;;;9.32;;
3819;SDS011;1925;51.356;9.530;2023-04-29T14:02:45;10.17;;;9.17;;
3819;SDS011;1925;51.356;9.530;2023-04-29T14:05:11;11.47;;;9.60;;
3819;SDS011;1925;51.356;9.530;2023-04-29T14:07:38;12.90;;;9.18;;
3819;SDS011;1925;51.356;9.530;2023-04-29T14:10:04;12.10;;;9.87;;
3819;SDS011;1925;51.356;9.530;2023-04-29T14:12:30;10.25;;;9.35;;
3819;SDS011;1925;51.356;9.530;2023-04-29T14:14:56;11.83;;;9.20;;
3819;SDS011;1925;51.356;9.530;2023-04-29T14:17:22;9.47;;;8.57;;
3819;SDS011;1925;51.356;9.530;2023-04-29T14:19:48;10.23;;;9.38;;
3819;SDS011;1925;51.356;9.530;2023-04-29T14:22:14;10.43;;;9.53;;
3819;SDS011;1925;51.356;9.530;2023-04-29T14:24:40;12.55;;;11.02;;
3819;SDS011;1925;51.356;9.530;2023-04-29T14:27:06;10.87;;;9.87;;
3819;SDS011;1925;51.356;9.530;2023-04-29T14:29:32;12.50;;;9.50;;
3819;SDS011;1925;51.356;9.530;2023-04-29T14:31:58;12.60;;;11.10;;
3819;SDS011;1925;51.356;9.530;2023-04-29T14:34:24;11.88;;;10.80;;
3819;SDS011;1925;51.356;9.530;2023-04-29T14:36:50;11.20;;;10.20;;
3819;SDS011;1925;51.356;9.530;2023-04-29T14:39:16;11.60;;;10.25;;
3819;SDS011;1925;51.356;9.530;2023-04-29T14:41:42;11.70;;;10.35;;
3819;SDS011;1925;51.356;9.530;2023-04-29T14:44:08;11.93;;;10.82;;
3819;SDS011;1925;51.356;9.530;2023-04-29T14:46:34;11.48;;;10.13;;
3819;SDS011;1925;51.356;9.530;2023-04-29T14:49:00;11.63;;;10.63;;
3819;SDS011;1925;51.356;9.530;2023-04-29T14:51:27;11.02;;;9.38;;
3819;SDS011;1925;51.356;9.530;2023-04-29T14:53:53;12.00;;;10.80;;
3819;SDS011;1925;51.356;9.530;2023-04-29T14:56:19;11.40;;;10.27;;
3819;SDS011;1925;51.356;9.530;2023-04-29T14:58:45;10.57;;;9.57;;
3819;SDS011;1925;51.356;9.530;2023-04-29T15:01:11;9.97;;;9.07;;
3819;SDS011;1925;51.356;9.530;2023-04-29T15:03:37;10.80;;;9.50;;
3819;SDS011;1925;51.356;9.530;2023-04-29T15:06:03;9.83;;;8.93;;
3819;SDS011;1925;51.356;9.530;2023-04-29T15:08:29;11.57;;;10.43;;
3819;SDS011;1925;51.356;9.530;2023-04-29T15:10:55;12.77;;;9.90;;
3819;SDS011;1925;51.356;9.530;2023-04-29T15:13:21;10.07;;;9.07;;
3819;SDS011;1925;51.356;9.530;2023-04-29T15:15:47;11.13;;;10.03;;
3819;SDS011;1925;51.356;9.530;2023-04-29T15:18:13;10.63;;;9.55;;
3819;SDS011;1925;51.356;9.530;2023-04-29T15:20:39;10.52;;;9.63;;
3819;SDS011;1925;51.356;9.530;2023-04-29T15:23:06;10.68;;;9.18;;